Barling, Arkansas
Current Conditions -  °F | °C
As of 11:53 PM on Wednesday 17 Dec 2014 (Local Time) from KFSM Reporting Station
Overcast Overcast  
Wind Chill: 30°   Ceiling: 4700
Heat Index: 36°   Visibility: 10mi
Dew Point: 34°   Wind: 8mph
Humidity: 93%   Direction: 90°E
Pressure: 30.2"   Gusts: NA
Location:  35.33°N, 94.3°W
Report Text: KFSM 180553Z AUTO 09007KT 10SM SCT037 OVC047 02/01 A3020 RMK AO2 SLP231 60048 T00220011 10028 20022 400281017 58018
Loading
Personal Weather Stations






























Interactive Weather Map New forecast layout! Learn more

10-Day Weather Forecast

Advertisements
Track Severe Weather on mobile